createdAt,value
2022-08-11T00:02:44.702Z,62.82
2022-08-11T00:07:51.592Z,62.79
2022-08-11T00:12:58.688Z,63.09
2022-08-11T00:18:03.763Z,64.03
2022-08-11T00:23:10.518Z,63.84
2022-08-11T00:28:32.489Z,63.18
2022-08-11T00:33:44.147Z,62.72
2022-08-11T00:38:52.952Z,62.83
2022-08-11T00:44:17.448Z,63.29
2022-08-11T00:49:42.518Z,63.68
2022-08-11T00:55:30.993Z,62.96
2022-08-11T01:00:54.533Z,61.91
2022-08-11T01:06:18.368Z,61.95
2022-08-11T01:12:07.844Z,62.77
2022-08-11T01:17:55.575Z,61.75
2022-08-11T01:23:42.173Z,61.74
2022-08-11T01:29:28.049Z,60.59
2022-08-11T01:35:12.112Z,60.50
2022-08-11T01:40:55.543Z,60.61
2022-08-11T01:46:06.249Z,61.90
2022-08-11T01:51:21.249Z,61.77
2022-08-11T01:56:35.051Z,61.33
2022-08-11T02:01:58.434Z,61.64
2022-08-11T02:07:18.644Z,62.09
2022-08-11T02:12:52.554Z,62.35
2022-08-11T02:18:06.768Z,62.68
2022-08-11T02:24:05.882Z,62.80
2022-08-11T02:29:16.753Z,62.31
2022-08-11T02:34:29.688Z,62.39
2022-08-11T02:39:44.451Z,63.21
2022-08-11T02:44:58.913Z,63.22
2022-08-11T02:50:13.403Z,62.63
2022-08-11T02:55:44.485Z,62.51
2022-08-11T03:01:11.717Z,64.89
2022-08-11T03:06:29.650Z,64.92
2022-08-11T03:12:09.156Z,64.98
2022-08-11T03:17:27.928Z,65.17
2022-08-11T03:22:39.012Z,65.13
2022-08-11T03:27:52.216Z,64.69
2022-08-11T03:33:25.266Z,65.46
2022-08-11T03:38:37.884Z,65.71
2022-08-11T03:44:00.826Z,65.38
2022-08-11T03:49:16.583Z,65.22
2022-08-11T03:54:35.387Z,64.89
2022-08-11T04:00:19.146Z,65.17
2022-08-11T04:05:51.922Z,65.20
2022-08-11T04:11:19.011Z,65.63
2022-08-11T04:16:44.489Z,65.75
2022-08-11T04:22:22.177Z,65.42
2022-08-11T04:27:56.372Z,66.36
2022-08-11T04:33:37.137Z,65.31
2022-08-11T04:39:10.718Z,65.91
2022-08-11T04:44:57.976Z,65.89
2022-08-11T04:50:36.313Z,65.97
2022-08-11T04:56:24.211Z,66.31
2022-08-11T05:01:43.317Z,66.15
2022-08-11T05:07:26.022Z,66.10
2022-08-11T05:12:37.757Z,65.85
2022-08-11T05:18:14.690Z,66.05
2022-08-11T05:23:43.493Z,66.06
2022-08-11T05:29:20.108Z,67.46
2022-08-11T05:34:46.186Z,69.64
2022-08-11T05:40:13.347Z,68.55
2022-08-11T05:45:57.302Z,69.54
2022-08-11T05:51:25.544Z,70.33
2022-08-11T05:56:43.552Z,69.61
2022-08-11T06:01:49.221Z,69.34
2022-08-11T06:06:59.545Z,68.17
2022-08-11T06:12:08.736Z,66.08
2022-08-11T06:17:13.958Z,66.06
2022-08-11T06:22:27.768Z,66.39
2022-08-11T06:27:44.467Z,65.80
2022-08-11T06:33:07.129Z,65.50
2022-08-11T06:38:16.285Z,63.89
2022-08-11T06:43:27.263Z,64.23
2022-08-11T06:48:34.058Z,62.51
2022-08-11T06:53:56.293Z,61.34
2022-08-11T06:59:29.999Z,59.58
2022-08-11T07:04:43.248Z,58.79
2022-08-11T07:10:43.019Z,57.05
2022-08-11T07:16:12.167Z,56.51
2022-08-11T07:22:01.279Z,55.31
2022-08-11T07:27:23.524Z,54.54
2022-08-11T07:32:33.079Z,53.53
2022-08-11T07:37:38.318Z,52.47
2022-08-11T07:42:46.586Z,51.39
2022-08-11T07:48:11.914Z,50.35
2022-08-11T07:53:16.431Z,49.10
2022-08-11T07:58:45.468Z,47.73
2022-08-11T08:04:18.400Z,46.40
2022-08-11T08:09:41.595Z,43.92
2022-08-11T08:15:03.137Z,42.55
2022-08-11T08:20:12.738Z,41.51
2022-08-11T08:25:18.166Z,41.23
2022-08-11T08:30:39.626Z,40.41
2022-08-11T08:35:55.629Z,39.07
2022-08-11T08:41:01.102Z,38.51
2022-08-11T08:46:10.467Z,37.68
2022-08-11T08:52:01.890Z,36.05
2022-08-11T08:56:58.999Z,34.74
2022-08-11T09:02:05.905Z,34.31
2022-08-11T09:07:14.055Z,32.95
2022-08-11T09:12:35.699Z,31.78
2022-08-11T09:17:46.122Z,31.48
2022-08-11T09:28:35.808Z,30.04
2022-08-11T09:33:40.788Z,30.16
2022-08-11T09:39:06.294Z,30.08
2022-08-11T09:44:28.973Z,30.23
2022-08-11T09:49:34.955Z,29.16
2022-08-11T09:54:41.147Z,28.41
2022-08-11T09:59:46.396Z,28.01
2022-08-11T10:04:54.361Z,27.24
2022-08-11T10:10:05.396Z,27.05
2022-08-11T10:15:28.472Z,28.06
2022-08-11T10:20:36.248Z,28.59
2022-08-11T10:26:01.192Z,28.14
2022-08-11T10:31:24.580Z,28.61
2022-08-11T10:36:42.648Z,28.17
2022-08-11T10:42:08.908Z,29.65
2022-08-11T10:47:33.501Z,28.97
2022-08-11T10:52:55.691Z,28.69
2022-08-11T10:58:18.746Z,27.55
2022-08-11T11:03:23.969Z,27.37
2022-08-11T11:08:50.430Z,27.37
2022-08-11T11:14:15.122Z,27.08
2022-08-11T11:19:24.073Z,27.45
2022-08-11T11:24:41.861Z,27.23
2022-08-11T11:30:06.064Z,26.16
2022-08-11T11:35:26.768Z,27.73
2022-08-11T11:40:31.606Z,26.17
2022-08-11T11:45:40.581Z,26.37
2022-08-11T11:50:45.027Z,28.59
2022-08-11T11:55:49.598Z,29.44
2022-08-11T12:01:16.316Z,29.68
2022-08-11T12:06:22.548Z,30.30
2022-08-11T12:11:46.287Z,31.20
2022-08-11T12:16:52.327Z,31.56
2022-08-11T12:22:16.155Z,31.13
2022-08-11T12:27:25.221Z,32.31
2022-08-11T12:32:33.580Z,31.81
2022-08-11T12:37:40.748Z,32.63
2022-08-11T12:43:04.036Z,33.38
2022-08-11T12:48:57.841Z,33.59
2022-08-11T12:54:05.467Z,34.19
2022-08-11T12:59:28.306Z,33.85
2022-08-11T13:04:51.550Z,33.74
2022-08-11T13:09:56.494Z,35.28
2022-08-11T13:15:01.959Z,35.86
2022-08-11T13:20:12.764Z,35.48
2022-08-11T13:25:18.410Z,36.02
2022-08-11T13:30:47.135Z,35.77
2022-08-11T13:35:56.048Z,35.96
2022-08-11T13:41:01.305Z,35.17
2022-08-11T13:46:20.565Z,33.66
2022-08-11T13:51:34.840Z,32.78
2022-08-11T13:56:43.708Z,31.79
2022-08-11T14:02:22.922Z,32.34
2022-08-11T14:07:20.043Z,32.79
2022-08-11T14:12:44.528Z,33.06
2022-08-11T14:17:53.439Z,32.84
2022-08-11T14:22:59.324Z,32.05
2022-08-11T14:28:31.742Z,32.93
2022-08-11T14:33:31.544Z,32.85
2022-08-11T14:38:55.104Z,33.36
2022-08-11T14:44:17.280Z,32.68
2022-08-11T14:49:22.372Z,33.75
2022-08-11T14:54:48.027Z,34.31
2022-08-11T14:59:54.187Z,34.23
2022-08-11T15:05:01.892Z,33.98
2022-08-11T15:10:13.558Z,33.89
2022-08-11T15:15:36.676Z,34.29
2022-08-11T15:20:58.477Z,34.57
2022-08-11T15:26:08.179Z,34.10
2022-08-11T15:31:32.638Z,33.68
2022-08-11T15:36:56.362Z,33.40
2022-08-11T15:42:23.644Z,34.60
2022-08-11T15:47:36.342Z,34.47
2022-08-11T15:52:58.214Z,35.59
2022-08-11T15:58:23.084Z,35.81
2022-08-11T16:04:06.775Z,36.58
2022-08-11T16:09:18.383Z,37.02
2022-08-11T16:14:45.300Z,37.61
2022-08-11T16:19:53.041Z,37.16
2022-08-11T16:26:21.355Z,37.73
2022-08-11T16:30:25.031Z,38.38
2022-08-11T16:35:43.611Z,39.04
2022-08-11T16:40:50.459Z,39.18
2022-08-11T16:46:15.417Z,39.31
2022-08-11T16:51:21.509Z,39.74
2022-08-11T16:56:32.850Z,40.03
2022-08-11T17:01:40.177Z,40.11
2022-08-11T17:07:23.736Z,41.22
2022-08-11T17:12:49.869Z,41.62
2022-08-11T17:17:58.538Z,42.32
2022-08-11T17:23:38.821Z,42.74
2022-08-11T17:28:44.465Z,42.84
2022-08-11T17:34:08.669Z,43.52
2022-08-11T17:39:14.678Z,43.56
2022-08-11T17:44:36.360Z,42.68
2022-08-11T17:49:42.637Z,42.62
2022-08-11T17:55:05.972Z,40.73
2022-08-11T18:00:11.444Z,35.84
2022-08-11T18:05:25.830Z,35.69
2022-08-11T18:10:50.018Z,36.54
2022-08-11T18:16:11.830Z,37.68
2022-08-11T18:21:38.098Z,38.20
2022-08-11T18:27:03.870Z,38.01
2022-08-11T18:32:46.222Z,38.22
2022-08-11T18:38:28.267Z,39.92
2022-08-11T18:44:04.511Z,41.05
2022-08-11T18:50:02.061Z,45.64
2022-08-11T18:55:17.954Z,49.02
2022-08-11T19:00:40.774Z,43.71
2022-08-11T19:06:38.289Z,43.50
2022-08-11T19:11:51.563Z,44.13
2022-08-11T19:17:45.191Z,43.71
2022-08-11T19:22:57.781Z,48.68
2022-08-11T19:28:25.675Z,50.36
2022-08-11T19:34:00.010Z,46.35
2022-08-11T19:39:26.505Z,44.71
2022-08-11T19:44:50.441Z,46.39
2022-08-11T19:50:13.309Z,46.48
2022-08-11T19:55:36.474Z,51.38
2022-08-11T20:01:00.514Z,53.02
2022-08-11T20:06:26.434Z,47.40
2022-08-11T20:11:50.693Z,46.76
2022-08-11T20:17:16.121Z,46.04
2022-08-11T20:22:38.143Z,46.21
2022-08-11T20:28:02.620Z,50.02
2022-08-11T20:33:27.493Z,52.70
2022-08-11T20:38:51.783Z,49.46
2022-08-11T20:44:14.822Z,47.29
2022-08-11T20:49:45.120Z,46.96
2022-08-11T20:55:25.888Z,48.70
2022-08-11T21:01:00.823Z,49.08
2022-08-11T21:06:31.407Z,49.20
2022-08-11T21:12:07.835Z,50.08
2022-08-11T21:17:36.968Z,51.05
2022-08-11T21:23:23.941Z,51.21
2022-08-11T21:28:47.059Z,52.44
2022-08-11T21:34:09.270Z,53.02
2022-08-11T21:39:38.077Z,57.08
2022-08-11T21:45:01.791Z,58.78
2022-08-11T21:50:24.250Z,54.61
2022-08-11T21:55:47.507Z,52.18
2022-08-11T22:01:09.334Z,52.01
2022-08-11T22:06:31.476Z,56.64
2022-08-11T22:12:34.301Z,58.93
2022-08-11T22:17:36.264Z,54.85
2022-08-11T22:22:58.447Z,53.86
2022-08-11T22:28:22.098Z,54.40
2022-08-11T22:34:02.044Z,54.54
2022-08-11T22:39:26.862Z,54.96
2022-08-11T22:44:49.715Z,54.89
2022-08-11T22:50:15.855Z,55.25
2022-08-11T22:55:39.159Z,59.85
2022-08-11T23:01:03.019Z,60.44
2022-08-11T23:06:25.692Z,60.33
2022-08-11T23:12:06.891Z,57.74
2022-08-11T23:17:32.134Z,55.57
2022-08-11T23:22:55.429Z,54.43
2022-08-11T23:28:19.914Z,53.47
2022-08-11T23:33:43.484Z,52.53
2022-08-11T23:39:05.196Z,51.56
2022-08-11T23:44:27.848Z,55.87
2022-08-11T23:49:51.689Z,58.35
2022-08-11T23:55:13.870Z,59.71
